Time,TemperatureF,DewpointF,PressureIn,WindDirection,WindDirectionDegrees,WindSpeedMPH,WindSpeedGustMPH,Humidity,HourlyPrecipIn,Conditions,Clouds,dailyrainin,SoftwareType,DateUTC
2013-06-03 00:00:00,79.8,44.3,29.81,NNW,337,0.4,0.4,28,-99.99,,,-99.99,tws,2013-06-03 07:00:00,
2013-06-03 00:10:00,79.6,44.8,29.82,NW,315,0.9,2.3,28,-99.99,,,-99.99,tws,2013-06-03 07:10:00,
2013-06-03 00:20:00,79.1,44.2,29.82,SW,225,1.6,2.3,28,-99.99,,,-99.99,tws,2013-06-03 07:20:00,
2013-06-03 00:30:00,78.8,43.8,29.81,SSW,202,2.6,3.1,28,-99.99,,,-99.99,tws,2013-06-03 07:30:00,
2013-06-03 00:40:00,78.6,43.8,29.82,NW,315,1.5,2.4,28,-99.99,,,-99.99,tws,2013-06-03 07:40:00,
2013-06-03 00:50:00,78.4,44.4,29.81,NW,315,2.6,3.1,29,-99.99,,,-99.99,tws,2013-06-03 07:50:00,
2013-06-03 01:00:00,78.0,44.4,29.81,NW,315,2.1,2.9,29,-99.99,,,-99.99,tws,2013-06-03 08:00:00,
2013-06-03 01:10:00,77.6,44.4,29.82,West,270,1.7,2.1,30,-99.99,,,-99.99,tws,2013-06-03 08:10:00,
2013-06-03 01:20:00,77.3,44.9,29.82,SW,225,1.4,1.9,31,-99.99,,,-99.99,tws,2013-06-03 08:20:00,
2013-06-03 01:30:00,76.9,44.6,29.82,West,270,0.2,1.0,31,-99.99,,,-99.99,tws,2013-06-03 08:30:00,
2013-06-03 01:40:00,76.6,43.7,29.83,ENE,67,0.5,4.0,30,-99.99,,,-99.99,tws,2013-06-03 08:40:00,
2013-06-03 01:50:00,76.3,43.4,29.84,SE,135,1.9,3.7,30,-99.99,,,-99.99,tws,2013-06-03 08:50:00,
2013-06-03 02:00:00,76.2,43.2,29.83,SE,135,2.1,3.3,30,-99.99,,,-99.99,tws,2013-06-03 09:00:00,
2013-06-03 02:10:00,76.4,42.8,29.83,ESE,112,3.1,3.9,29,-99.99,,,-99.99,tws,2013-06-03 09:10:00,
2013-06-03 02:20:00,76.8,42.5,29.83,East,90,2.8,3.5,28,-99.99,,,-99.99,tws,2013-06-03 09:20:00,
2013-06-03 02:30:00,77.2,41.4,29.83,East,90,4.3,5.5,27,-99.99,,,-99.99,tws,2013-06-03 09:30:00,
2013-06-03 02:40:00,77.9,40.6,29.83,North,0,4.2,5.3,25,-99.99,,,-99.99,tws,2013-06-03 09:40:00,
2013-06-03 02:50:00,78.3,40.5,29.82,NE,45,4.1,5.2,25,-99.99,,,-99.99,tws,2013-06-03 09:50:00,
2013-06-03 03:10:00,79.3,39.9,29.83,East,90,5.4,6.6,24,-99.99,,,-99.99,tws,2013-06-03 10:10:00,
2013-06-03 03:20:00,79.6,39.9,29.83,NE,45,4.4,5.6,23,-99.99,,,-99.99,tws,2013-06-03 10:20:00,
2013-06-03 03:30:00,79.5,39.6,29.83,East,90,4.0,5.0,23,-99.99,,,-99.99,tws,2013-06-03 10:30:00,
2013-06-03 03:40:00,79.3,39.0,29.84,ESE,112,3.6,4.9,23,-99.99,,,-99.99,tws,2013-06-03 10:40:00,
2013-06-03 03:50:00,79.1,38.8,29.84,East,90,3.6,5.0,23,-99.99,,,-99.99,tws,2013-06-03 10:50:00,
2013-06-03 04:00:00,78.8,38.6,29.85,ESE,112,3.3,4.4,23,-99.99,,,-99.99,tws,2013-06-03 11:00:00,
2013-06-03 04:10:00,78.6,38.7,29.84,ESE,112,2.8,3.6,23,-99.99,,,-99.99,tws,2013-06-03 11:10:00,
2013-06-03 04:20:00,78.3,38.6,29.84,East,90,3.9,5.4,23,-99.99,,,-99.99,tws,2013-06-03 11:20:00,
2013-06-03 04:30:00,78.2,38.6,29.85,SE,135,5.0,6.5,23,-99.99,,,-99.99,tws,2013-06-03 11:30:00,
2013-06-03 04:40:00,78.4,38.9,29.84,East,90,4.4,5.3,23,-99.99,,,-99.99,tws,2013-06-03 11:40:00,
2013-06-03 04:50:00,78.4,38.4,29.85,East,90,3.7,5.0,23,-99.99,,,-99.99,tws,2013-06-03 11:50:00,
2013-06-03 05:00:00,78.2,38.5,29.85,ENE,67,3.0,3.7,23,-99.99,,,-99.99,tws,2013-06-03 12:00:00,
2013-06-03 05:10:00,78.0,39.3,29.86,East,90,4.8,6.0,24,-99.99,,,-99.99,tws,2013-06-03 12:10:00,
2013-06-03 05:20:00,77.8,39.8,29.85,NE,45,3.1,4.1,25,-99.99,,,-99.99,tws,2013-06-03 12:20:00,
2013-06-03 05:30:00,77.4,39.5,29.85,ESE,112,3.9,5.8,25,-99.99,,,-99.99,tws,2013-06-03 12:30:00,
2013-06-03 05:40:00,77.4,38.9,29.85,NE,45,3.6,6.2,24,-99.99,,,-99.99,tws,2013-06-03 12:40:00,
2013-06-03 05:50:00,77.6,38.5,29.86,East,90,3.6,4.7,24,-99.99,,,-99.99,tws,2013-06-03 12:50:00,
2013-06-03 06:00:00,78.0,38.1,29.87,ESE,112,4.0,5.2,23,-99.99,,,-99.99,tws,2013-06-03 13:00:00,
2013-06-03 06:10:00,78.2,38.3,29.87,ESE,112,3.5,4.4,23,-99.99,,,-99.99,tws,2013-06-03 13:10:00,
2013-06-03 06:20:00,78.2,38.4,29.87,East,90,4.0,6.2,23,-99.99,,,-99.99,tws,2013-06-03 13:20:00,
2013-06-03 06:30:00,78.2,39.0,29.88,East,90,3.6,5.2,24,-99.99,,,-99.99,tws,2013-06-03 13:30:00,
2013-06-03 06:40:00,78.3,38.4,29.88,East,90,4.2,6.6,23,-99.99,,,-99.99,tws,2013-06-03 13:40:00,
2013-06-03 06:50:00,78.8,38.4,29.88,East,90,5.4,6.9,23,-99.99,,,-99.99,tws,2013-06-03 13:50:00,
2013-06-03 07:00:00,79.5,39.1,29.89,East,90,3.2,4.7,23,-99.99,,,-99.99,tws,2013-06-03 14:00:00,
2013-06-03 07:10:00,79.7,40.5,29.89,South,180,4.7,5.7,24,-99.99,,,-99.99,tws,2013-06-03 14:10:00,
2013-06-03 07:20:00,79.8,40.0,29.89,SE,135,5.1,7.3,23,-99.99,,,-99.99,tws,2013-06-03 14:20:00,
2013-06-03 07:30:00,80.2,39.9,29.90,East,90,5.2,6.5,23,-99.99,,,-99.99,tws,2013-06-03 14:30:00,
2013-06-03 07:40:00,80.8,39.5,29.91,SE,135,5.2,6.3,22,-99.99,,,-99.99,tws,2013-06-03 14:40:00,
2013-06-03 07:50:00,81.5,39.3,29.91,East,90,4.7,6.2,21,-99.99,,,-99.99,tws,2013-06-03 14:50:00,
2013-06-03 08:00:00,82.0,40.8,29.90,East,90,4.9,5.8,22,-99.99,,,-99.99,tws,2013-06-03 15:00:00,
2013-06-03 08:10:00,82.3,41.7,29.91,East,90,5.4,7.3,23,-99.99,,,-99.99,tws,2013-06-03 15:10:00,
2013-06-03 08:20:00,82.7,40.3,29.91,SE,135,5.5,7.5,21,-99.99,,,-99.99,tws,2013-06-03 15:20:00,
2013-06-03 08:30:00,83.8,39.8,29.90,ESE,112,5.6,7.4,20,-99.99,,,-99.99,tws,2013-06-03 15:30:00,
2013-06-03 08:40:00,84.8,40.6,29.90,SE,135,6.8,8.4,20,-99.99,,,-99.99,tws,2013-06-03 15:40:00,
2013-06-03 08:50:00,85.7,40.1,29.91,East,90,6.8,9.0,19,-99.99,,,-99.99,tws,2013-06-03 15:50:00,
2013-06-03 09:00:00,86.5,40.3,29.90,ESE,112,6.6,8.8,19,-99.99,,,-99.99,tws,2013-06-03 16:00:00,
2013-06-03 09:10:00,87.0,40.5,29.90,East,90,7.3,9.1,19,-99.99,,,-99.99,tws,2013-06-03 16:10:00,
2013-06-03 09:20:00,87.4,40.7,29.90,NE,45,6.0,9.0,19,-99.99,,,-99.99,tws,2013-06-03 16:20:00,
2013-06-03 09:30:00,87.7,41.2,29.91,NE,45,6.8,9.6,19,-99.99,,,-99.99,tws,2013-06-03 16:30:00,
2013-06-03 09:40:00,88.2,41.9,29.91,NE,45,6.8,8.9,19,-99.99,,,-99.99,tws,2013-06-03 16:40:00,
2013-06-03 09:50:00,88.7,40.7,29.91,East,90,7.0,9.8,18,-99.99,,,-99.99,tws,2013-06-03 16:50:00,
2013-06-03 10:00:00,89.2,40.8,29.92,North,360,7.9,11.2,18,-99.99,,,-99.99,tws,2013-06-03 17:00:00,
2013-06-03 10:10:00,89.8,41.4,29.91,North,360,7.7,9.7,18,-99.99,,,-99.99,tws,2013-06-03 17:10:00,
2013-06-03 10:20:00,90.2,41.4,29.91,East,90,6.6,8.1,17,-99.99,,,-99.99,tws,2013-06-03 17:20:00,
2013-06-03 10:30:00,90.8,41.4,29.92,ESE,112,7.0,9.4,17,-99.99,,,-99.99,tws,2013-06-03 17:30:00,
2013-06-03 10:40:00,91.4,41.4,29.91,SE,135,6.6,8.0,17,-99.99,,,-99.99,tws,2013-06-03 17:40:00,
2013-06-03 10:50:00,91.9,41.7,29.90,North,360,6.1,9.6,17,-99.99,,,-99.99,tws,2013-06-03 17:50:00,
2013-06-03 11:00:00,92.3,41.5,29.89,SE,135,5.8,6.5,16,-99.99,,,-99.99,tws,2013-06-03 18:00:00,
2013-06-03 11:10:00,92.5,41.9,29.89,ESE,112,5.5,7.6,16,-99.99,,,-99.99,tws,2013-06-03 18:10:00,
2013-06-03 11:20:00,93.0,42.7,29.89,SE,135,5.9,8.3,17,-99.99,,,-99.99,tws,2013-06-03 18:20:00,
2013-06-03 11:30:00,93.1,42.7,29.88,East,90,6.1,8.1,17,-99.99,,,-99.99,tws,2013-06-03 18:30:00,
2013-06-03 11:40:00,93.5,41.8,29.88,NE,45,3.9,4.7,16,-99.99,,,-99.99,tws,2013-06-03 18:40:00,
2013-06-03 11:50:00,94.0,42.1,29.88,North,360,6.7,11.1,16,-99.99,,,-99.99,tws,2013-06-03 18:50:00,
2013-06-03 12:00:00,94.3,42.6,29.87,South,180,3.9,6.3,16,-99.99,,,-99.99,tws,2013-06-03 19:00:00,
2013-06-03 12:10:00,94.9,41.5,29.87,SE,135,8.1,10.5,15,-99.99,,,-99.99,tws,2013-06-03 19:10:00,
2013-06-03 12:20:00,95.7,40.3,29.88,East,90,8.5,9.9,14,-99.99,,,-99.99,tws,2013-06-03 19:20:00,
2013-06-03 12:30:00,96.0,40.2,29.87,North,360,7.0,9.6,14,-99.99,,,-99.99,tws,2013-06-03 19:30:00,
2013-06-03 12:40:00,96.3,40.2,29.87,SE,135,8.5,11.5,14,-99.99,,,-99.99,tws,2013-06-03 19:40:00,
2013-06-03 12:50:00,96.7,40.0,29.87,East,90,7.7,9.9,13,-99.99,,,-99.99,tws,2013-06-03 19:50:00,
2013-06-03 13:00:00,96.9,39.4,29.87,East,90,9.6,14.2,13,-99.99,,,-99.99,tws,2013-06-03 20:00:00,
2013-06-03 13:10:00,97.1,39.7,29.87,ESE,112,6.3,9.0,13,-99.99,,,-99.99,tws,2013-06-03 20:10:00,
2013-06-03 13:20:00,97.3,41.5,29.87,East,90,6.8,9.3,14,-99.99,,,-99.99,tws,2013-06-03 20:20:00,
2013-06-03 13:30:00,97.5,40.9,29.86,SE,135,5.8,9.3,13,-99.99,,,-99.99,tws,2013-06-03 20:30:00,
2013-06-03 13:40:00,97.6,41.7,29.86,SE,135,5.2,7.4,14,-99.99,,,-99.99,tws,2013-06-03 20:40:00,
2013-06-03 13:50:00,98.0,42.1,29.86,SSE,157,6.1,7.9,14,-99.99,,,-99.99,tws,2013-06-03 20:50:00,
2013-06-03 14:00:00,98.4,42.8,29.85,SSE,157,6.6,10.4,14,-99.99,,,-99.99,tws,2013-06-03 21:00:00,
2013-06-03 14:10:00,98.6,43.6,29.85,SW,225,4.4,6.7,14,-99.99,,,-99.99,tws,2013-06-03 21:10:00,
2013-06-03 14:20:00,98.8,43.1,29.85,SSE,157,4.2,8.3,14,-99.99,,,-99.99,tws,2013-06-03 21:20:00,
2013-06-03 14:30:00,99.1,42.4,29.84,East,90,6.3,8.8,13,-99.99,,,-99.99,tws,2013-06-03 21:30:00,
2013-06-03 14:40:00,99.4,41.9,29.84,South,180,5.3,7.8,13,-99.99,,,-99.99,tws,2013-06-03 21:40:00,
2013-06-03 14:50:00,99.5,40.6,29.84,NW,315,6.5,10.2,12,-99.99,,,-99.99,tws,2013-06-03 21:50:00,
2013-06-03 15:00:00,99.7,40.2,29.84,ESE,112,6.4,10.0,12,-99.99,,,-99.99,tws,2013-06-03 22:00:00,
2013-06-03 15:10:00,100.1,41.3,29.82,SE,135,7.3,11.9,13,-99.99,,,-99.99,tws,2013-06-03 22:10:00,
2013-06-03 15:20:00,100.2,38.7,29.82,SSE,157,9.6,12.7,11,-99.99,,,-99.99,tws,2013-06-03 22:20:00,
2013-06-03 15:30:00,100.3,38.8,29.81,SSE,157,6.0,7.4,11,-99.99,,,-99.99,tws,2013-06-03 22:30:00,
2013-06-03 15:40:00,101.0,38.4,29.81,South,180,8.2,12.6,11,-99.99,,,-99.99,tws,2013-06-03 22:40:00,
2013-06-03 15:50:00,101.1,37.5,29.82,South,180,7.2,9.4,10,-99.99,,,-99.99,tws,2013-06-03 22:50:00,
2013-06-03 16:00:00,101.1,37.5,29.80,SSE,157,6.6,12.1,10,-99.99,,,-99.99,tws,2013-06-03 23:00:00,
2013-06-03 16:10:00,101.0,36.7,29.79,East,90,7.5,10.6,10,-99.99,,,-99.99,tws,2013-06-03 23:10:00,
2013-06-03 16:20:00,101.0,38.0,29.80,South,180,5.6,8.0,11,-99.99,,,-99.99,tws,2013-06-03 23:20:00,
2013-06-03 16:30:00,101.0,36.5,29.80,South,180,9.9,14.0,10,-99.99,,,-99.99,tws,2013-06-03 23:30:00,
2013-06-03 16:40:00,100.1,36.2,29.80,SW,225,10.5,14.7,10,-99.99,,,-99.99,tws,2013-06-03 23:40:00,
2013-06-03 16:50:00,99.7,37.2,29.79,South,180,7.4,11.7,11,-99.99,,,-99.99,tws,2013-06-03 23:50:00,
2013-06-03 17:00:00,99.4,36.1,29.80,South,180,7.2,11.3,10,-99.99,,,-99.99,tws,2013-06-04 00:00:00,
2013-06-03 17:10:00,99.1,35.5,29.79,South,180,10.5,14.1,10,-99.99,,,-99.99,tws,2013-06-04 00:10:00,
2013-06-03 17:20:00,98.7,35.0,29.78,South,180,8.8,12.1,10,-99.99,,,-99.99,tws,2013-06-04 00:20:00,
2013-06-03 17:30:00,98.5,34.8,29.78,SW,225,7.8,11.3,10,-99.99,,,-99.99,tws,2013-06-04 00:30:00,
2013-06-03 17:40:00,98.2,35.1,29.77,South,180,8.5,10.3,10,-99.99,,,-99.99,tws,2013-06-04 00:40:00,
2013-06-03 17:50:00,97.9,34.8,29.78,South,180,7.2,8.8,10,-99.99,,,-99.99,tws,2013-06-04 00:50:00,
2013-06-03 18:00:00,97.5,34.4,29.79,SSE,157,9.0,12.5,10,-99.99,,,-99.99,tws,2013-06-04 01:00:00,
2013-06-03 18:10:00,97.0,34.1,29.80,SSW,202,7.3,9.0,10,-99.99,,,-99.99,tws,2013-06-04 01:10:00,
2013-06-03 18:20:00,96.6,34.3,29.79,SW,225,7.9,10.0,11,-99.99,,,-99.99,tws,2013-06-04 01:20:00,
2013-06-03 18:30:00,96.1,35.2,29.80,SW,225,8.5,12.7,11,-99.99,,,-99.99,tws,2013-06-04 01:30:00,
2013-06-03 18:40:00,95.7,35.1,29.80,South,180,7.4,10.5,11,-99.99,,,-99.99,tws,2013-06-04 01:40:00,
2013-06-03 18:50:00,95.3,35.2,29.80,WSW,247,6.6,8.9,11,-99.99,,,-99.99,tws,2013-06-04 01:50:00,
2013-06-03 19:00:00,94.9,34.9,29.80,SW,225,7.8,11.6,11,-99.99,,,-99.99,tws,2013-06-04 02:00:00,
2013-06-03 19:10:00,94.5,35.3,29.80,South,180,6.2,8.4,12,-99.99,,,-99.99,tws,2013-06-04 02:10:00,
2013-06-03 19:20:00,94.0,34.8,29.81,SSE,157,7.2,8.2,12,-99.99,,,-99.99,tws,2013-06-04 02:20:00,
2013-06-03 19:30:00,93.4,34.6,29.82,South,180,4.2,5.5,12,-99.99,,,-99.99,tws,2013-06-04 02:30:00,
2013-06-03 19:40:00,92.8,34.2,29.81,SW,225,4.1,5.5,12,-99.99,,,-99.99,tws,2013-06-04 02:40:00,
2013-06-03 19:50:00,92.0,35.0,29.82,SW,225,4.4,5.9,13,-99.99,,,-99.99,tws,2013-06-04 02:50:00,
2013-06-03 20:00:00,91.3,34.8,29.82,South,180,3.9,4.7,13,-99.99,,,-99.99,tws,2013-06-04 03:00:00,
2013-06-03 20:10:00,90.5,35.2,29.82,South,180,3.9,5.3,13,-99.99,,,-99.99,tws,2013-06-04 03:10:00,
2013-06-03 20:20:00,89.8,35.4,29.83,SW,225,4.1,4.9,14,-99.99,,,-99.99,tws,2013-06-04 03:20:00,
2013-06-03 20:30:00,89.2,35.8,29.83,SW,225,4.0,4.8,14,-99.99,,,-99.99,tws,2013-06-04 03:30:00,
2013-06-03 20:40:00,88.6,36.2,29.84,SW,225,4.3,5.3,15,-99.99,,,-99.99,tws,2013-06-04 03:40:00,
2013-06-03 20:50:00,88.0,36.1,29.84,South,180,4.6,5.1,15,-99.99,,,-99.99,tws,2013-06-04 03:50:00,
2013-06-03 21:00:00,87.5,36.4,29.83,South,180,5.1,6.0,15,-99.99,,,-99.99,tws,2013-06-04 04:00:00,
2013-06-03 21:10:00,87.2,36.5,29.84,SW,225,4.4,5.1,16,-99.99,,,-99.99,tws,2013-06-04 04:10:00,
2013-06-03 21:20:00,86.7,36.0,29.84,WSW,247,4.7,5.9,16,-99.99,,,-99.99,tws,2013-06-04 04:20:00,
2013-06-03 21:30:00,86.3,36.3,29.86,SW,225,4.3,5.5,16,-99.99,,,-99.99,tws,2013-06-04 04:30:00,
2013-06-03 21:40:00,86.1,36.4,29.86,SW,225,4.0,5.5,16,-99.99,,,-99.99,tws,2013-06-04 04:40:00,
2013-06-03 21:50:00,85.9,36.1,29.86,South,180,3.4,4.3,16,-99.99,,,-99.99,tws,2013-06-04 04:50:00,
2013-06-03 22:00:00,85.6,36.1,29.87,WSW,247,4.0,5.1,16,-99.99,,,-99.99,tws,2013-06-04 05:00:00,
2013-06-03 22:10:00,85.2,35.8,29.88,SW,225,4.7,6.2,16,-99.99,,,-99.99,tws,2013-06-04 05:10:00,
2013-06-03 22:20:00,85.0,36.0,29.88,SE,135,3.3,4.6,17,-99.99,,,-99.99,tws,2013-06-04 05:20:00,
2013-06-03 22:30:00,84.8,35.7,29.89,SW,225,3.1,4.1,17,-99.99,,,-99.99,tws,2013-06-04 05:30:00,
2013-06-03 22:40:00,84.4,37.2,29.89,NNW,337,0.4,1.2,18,-99.99,,,-99.99,tws,2013-06-04 05:40:00,
2013-06-03 22:50:00,83.7,38.3,29.89,NNW,337,1.7,2.3,19,-99.99,,,-99.99,tws,2013-06-04 05:50:00,
2013-06-03 23:00:00,82.7,38.2,29.89,West,270,1.8,2.5,20,-99.99,,,-99.99,tws,2013-06-04 06:00:00,
2013-06-03 23:10:00,81.7,37.2,29.89,South,180,1.0,1.9,19,-99.99,,,-99.99,tws,2013-06-04 06:10:00,
2013-06-03 23:20:00,80.9,38.1,29.90,NW,315,0.1,0.8,21,-99.99,,,-99.99,tws,2013-06-04 06:20:00,
2013-06-03 23:30:00,80.1,38.3,29.89,WSW,247,0.4,1.2,21,-99.99,,,-99.99,tws,2013-06-04 06:30:00,
2013-06-03 23:40:00,79.7,38.4,29.89,SW,225,0.8,1.5,22,-99.99,,,-99.99,tws,2013-06-04 06:40:00,
2013-06-03 23:50:00,79.3,39.2,29.88,SW,225,1.5,2.0,23,-99.99,,,-99.99,tws,2013-06-04 06:50:00,